createdAt,value
2023-09-29T00:02:34.739Z,19.50
2023-09-29T00:06:20.480Z,22.30
2023-09-29T00:10:10.101Z,20.60
2023-09-29T00:13:36.344Z,23.00
2023-09-29T00:17:13.612Z,23.50
2023-09-29T00:20:51.208Z,22.90
2023-09-29T00:24:48.141Z,22.10
2023-09-29T00:28:17.280Z,22.60
2023-09-29T00:32:15.611Z,19.90
2023-09-29T00:35:41.422Z,20.40
2023-09-29T00:39:19.479Z,22.70
2023-09-29T00:43:16.077Z,28.30
2023-09-29T00:46:41.798Z,21.70
2023-09-29T00:50:39.527Z,17.10
2023-09-29T00:54:09.741Z,24.90
2023-09-29T00:57:49.335Z,23.10
2023-09-29T01:01:42.111Z,28.50
2023-09-29T01:05:30.209Z,24.40
2023-09-29T01:09:00.855Z,20.20
2023-09-29T01:12:54.270Z,23.70
2023-09-29T01:16:39.808Z,18.20
2023-09-29T01:20:13.347Z,18.60
2023-09-29T01:24:03.809Z,18.00
2023-09-29T01:27:52.659Z,19.10
2023-09-29T01:31:39.551Z,21.60
2023-09-29T01:35:05.570Z,15.90
2023-09-29T01:38:43.920Z,18.40
2023-09-29T01:42:40.566Z,19.10
2023-09-29T01:46:25.142Z,20.90
2023-09-29T01:49:51.155Z,18.20
2023-09-29T01:53:47.336Z,24.80
2023-09-29T01:57:14.021Z,19.90
2023-09-29T02:01:10.181Z,17.20
2023-09-29T02:04:36.512Z,23.50
2023-09-29T02:08:14.908Z,22.80
2023-09-29T02:12:10.561Z,19.10
2023-09-29T02:15:55.443Z,18.50
2023-09-29T02:19:41.279Z,20.90
2023-09-29T02:23:08.464Z,20.40
2023-09-29T02:26:45.777Z,21.20
2023-09-29T02:30:41.545Z,52.10
2023-09-29T02:34:08.224Z,23.10
2023-09-29T02:37:46.855Z,27.50
2023-09-29T02:41:41.647Z,22.00
2023-09-29T02:45:08.874Z,22.40
2023-09-29T02:48:45.386Z,23.30
2023-09-29T02:52:23.003Z,24.00
2023-09-29T02:56:21.545Z,26.30
2023-09-29T02:59:48.146Z,22.20
2023-09-29T03:03:28.238Z,21.80
2023-09-29T03:07:02.562Z,24.70
2023-09-29T03:10:40.319Z,19.90
2023-09-29T03:14:36.944Z,26.70
2023-09-29T03:18:03.281Z,22.10
2023-09-29T03:21:40.548Z,21.60
2023-09-29T03:25:38.499Z,17.90
2023-09-29T03:29:05.297Z,29.60
2023-09-29T03:33:01.389Z,21.00
2023-09-29T03:36:27.139Z,23.30
2023-09-29T03:40:11.008Z,19.90
2023-09-29T03:43:42.738Z,28.20
2023-09-29T03:47:20.289Z,30.00
2023-09-29T03:50:59.023Z,22.00
2023-09-29T03:54:36.060Z,24.40
2023-09-29T03:58:32.376Z,22.60
2023-09-29T04:01:58.236Z,24.40
2023-09-29T04:05:37.581Z,26.00
2023-09-29T04:09:32.664Z,26.60
2023-09-29T04:13:17.313Z,23.30
2023-09-29T04:16:42.834Z,23.10
2023-09-29T04:20:39.418Z,24.70
2023-09-29T04:24:05.665Z,20.80
2023-09-29T04:27:42.772Z,29.20
2023-09-29T04:31:20.409Z,22.50
2023-09-29T04:34:58.167Z,33.30
2023-09-29T04:38:55.465Z,31.70
2023-09-29T04:42:22.897Z,28.80
2023-09-29T04:46:19.375Z,19.40
2023-09-29T04:49:45.302Z,21.00
2023-09-29T04:53:41.838Z,25.20
2023-09-29T04:57:26.992Z,25.70
2023-09-29T05:00:54.103Z,18.30
2023-09-29T05:04:30.645Z,15.40
2023-09-29T05:08:27.380Z,16.90
2023-09-29T05:12:12.821Z,18.80
2023-09-29T05:15:39.131Z,21.00
2023-09-29T05:19:16.467Z,19.70
2023-09-29T05:23:13.128Z,19.10
2023-09-29T05:26:39.009Z,18.30
2023-09-29T05:30:22.364Z,16.20
2023-09-29T05:34:13.196Z,17.10
2023-09-29T05:37:58.144Z,16.30
2023-09-29T05:41:24.717Z,22.20
2023-09-29T05:45:02.874Z,25.10
2023-09-29T05:48:40.415Z,21.80
2023-09-29T05:52:17.053Z,21.00
2023-09-29T05:56:15.128Z,16.80
2023-09-29T05:59:41.402Z,18.90
2023-09-29T06:03:18.982Z,17.80
2023-09-29T06:06:56.386Z,18.20
2023-09-29T06:10:34.088Z,18.20
2023-09-29T06:14:12.037Z,22.30
2023-09-29T06:18:08.466Z,22.60
2023-09-29T06:21:53.766Z,25.20
2023-09-29T06:25:38.586Z,13.60
2023-09-29T06:29:07.056Z,20.80
2023-09-29T06:33:01.031Z,20.50
2023-09-29T06:36:27.299Z,17.00
2023-09-29T06:40:23.738Z,29.70
2023-09-29T06:43:49.729Z,16.70
2023-09-29T06:47:46.126Z,18.40
2023-09-29T06:51:32.959Z,18.20
2023-09-29T06:55:21.734Z,20.60
2023-09-29T06:58:50.874Z,22.10
2023-09-29T07:02:25.464Z,24.90
2023-09-29T07:06:24.020Z,18.80
2023-09-29T07:09:50.108Z,21.40
2023-09-29T07:13:46.865Z,20.80
2023-09-29T07:17:12.751Z,28.30
2023-09-29T07:20:54.775Z,16.20
2023-09-29T07:24:28.093Z,20.40
2023-09-29T07:28:14.540Z,17.40
2023-09-29T07:32:02.375Z,21.70
2023-09-29T07:35:47.123Z,16.50
2023-09-29T07:39:34.304Z,16.40
2023-09-29T07:43:20.088Z,15.40
2023-09-29T07:46:47.916Z,15.50
2023-09-29T07:50:43.596Z,21.20
2023-09-29T07:54:10.616Z,18.30
2023-09-29T07:57:48.338Z,16.40
2023-09-29T08:01:48.855Z,18.00
2023-09-29T08:05:14.672Z,17.20
2023-09-29T08:09:13.160Z,17.20
2023-09-29T08:12:58.199Z,15.40
2023-09-29T08:16:47.929Z,15.20
2023-09-29T08:20:34.733Z,13.70
2023-09-29T08:24:19.663Z,18.50
2023-09-29T08:28:06.631Z,17.50
2023-09-29T08:31:33.628Z,11.00
2023-09-29T08:35:14.636Z,15.00
2023-09-29T08:39:02.303Z,12.70
2023-09-29T08:42:55.898Z,10.20
2023-09-29T08:46:43.726Z,17.40
2023-09-29T08:50:29.370Z,9.40
2023-09-29T08:54:01.402Z,8.10
2023-09-29T08:57:55.787Z,12.40
2023-09-29T09:01:31.720Z,18.00
2023-09-29T09:05:16.107Z,11.10
2023-09-29T09:08:52.999Z,14.90
2023-09-29T09:12:36.785Z,11.50
2023-09-29T09:16:04.413Z,10.50
2023-09-29T09:20:01.649Z,7.80
2023-09-29T09:23:39.488Z,14.10
2023-09-29T09:27:38.302Z,12.60
2023-09-29T09:31:24.343Z,16.70
2023-09-29T09:34:51.410Z,7.30
2023-09-29T09:38:49.228Z,8.90
2023-09-29T09:42:25.781Z,10.50
2023-09-29T09:46:15.329Z,12.40
2023-09-29T09:49:49.572Z,11.40
2023-09-29T09:53:39.477Z,8.60
2023-09-29T09:57:13.160Z,14.80
2023-09-29T10:00:47.361Z,8.70
2023-09-29T10:04:27.806Z,12.70
2023-09-29T10:08:04.292Z,13.40
2023-09-29T10:24:58.391Z,7.70
2023-09-29T10:28:34.154Z,6.50
2023-09-29T10:32:32.711Z,10.20
2023-09-29T10:36:19.047Z,18.40
2023-09-29T10:39:46.657Z,7.00
2023-09-29T10:43:25.188Z,11.00
2023-09-29T10:47:02.504Z,7.20
2023-09-29T10:50:56.718Z,7.30
2023-09-29T10:54:23.053Z,10.60
2023-09-29T10:58:06.095Z,7.40
2023-09-29T11:01:38.246Z,7.50
2023-09-29T11:05:15.618Z,7.50
2023-09-29T11:09:01.321Z,15.80
2023-09-29T11:12:34.006Z,6.00
2023-09-29T11:16:19.232Z,4.60
2023-09-29T11:19:59.476Z,8.80
2023-09-29T11:23:38.775Z,11.10
2023-09-29T11:27:30.657Z,9.10
2023-09-29T11:31:16.453Z,10.70
2023-09-29T11:34:47.147Z,6.20
2023-09-29T11:38:33.172Z,5.80
2023-09-29T11:42:11.707Z,5.60
2023-09-29T11:45:47.593Z,9.10
2023-09-29T11:49:23.304Z,8.80
2023-09-29T12:06:18.723Z,9.70
2023-09-29T12:09:57.139Z,8.00
2023-09-29T12:13:52.051Z,8.70
2023-09-29T12:17:24.244Z,6.50
2023-09-29T12:21:09.473Z,6.40
2023-09-29T12:25:03.804Z,7.80
2023-09-29T12:28:32.597Z,7.10
2023-09-29T12:32:10.759Z,6.70
2023-09-29T12:35:46.004Z,5.60
2023-09-29T12:39:29.554Z,8.90
2023-09-29T12:47:13.334Z,6.80
2023-09-29T13:04:30.496Z,9.70
2023-09-29T13:08:07.219Z,7.30
2023-09-29T13:11:58.665Z,9.70
2023-09-29T13:15:24.551Z,6.90
2023-09-29T13:19:03.807Z,9.40
2023-09-29T13:22:40.248Z,7.40
2023-09-29T13:26:18.678Z,7.30
2023-09-29T13:29:55.585Z,9.70
2023-09-29T13:33:52.114Z,11.00
2023-09-29T13:37:37.348Z,11.30
2023-09-29T13:41:04.722Z,7.00
2023-09-29T13:44:42.544Z,8.70
2023-09-29T13:48:39.121Z,13.50
2023-09-29T13:52:06.243Z,8.20
2023-09-29T13:56:08.216Z,9.50
2023-09-29T13:59:34.986Z,11.90
2023-09-29T14:03:11.612Z,9.50
2023-09-29T14:07:11.500Z,12.00
2023-09-29T14:10:38.981Z,12.40
2023-09-29T14:14:34.589Z,8.60
2023-09-29T14:18:01.111Z,8.10
2023-09-29T14:21:38.741Z,6.00
2023-09-29T14:25:16.354Z,9.00
2023-09-29T14:28:53.768Z,9.70
2023-09-29T14:32:31.036Z,14.30
2023-09-29T14:36:09.235Z,11.90
2023-09-29T14:40:07.023Z,7.60
2023-09-29T14:43:53.292Z,15.00
2023-09-29T14:47:19.016Z,17.30
2023-09-29T14:50:56.833Z,13.50
2023-09-29T14:54:34.361Z,15.10
2023-09-29T14:58:14.309Z,29.90
2023-09-29T15:01:50.792Z,24.50
2023-09-29T15:05:48.028Z,63.00
2023-09-29T15:09:32.935Z,22.10
2023-09-29T15:13:18.224Z,23.00
2023-09-29T15:17:08.959Z,16.80
2023-09-29T15:20:39.646Z,22.90
2023-09-29T15:24:32.689Z,17.10
2023-09-29T15:28:20.581Z,17.50
2023-09-29T15:32:05.509Z,12.80
2023-09-29T15:35:31.146Z,13.70
2023-09-29T15:39:13.465Z,10.20
2023-09-29T15:42:47.558Z,8.60
2023-09-29T15:46:45.105Z,10.70
2023-09-29T15:50:31.150Z,8.90
2023-09-29T15:53:57.472Z,10.10
2023-09-29T15:57:54.456Z,7.00
2023-09-29T16:01:22.866Z,8.70
2023-09-29T16:05:17.924Z,8.10
2023-09-29T16:09:04.341Z,9.20
2023-09-29T16:12:30.522Z,10.30
2023-09-29T16:16:26.503Z,12.60
2023-09-29T16:20:12.028Z,10.30
2023-09-29T16:23:56.768Z,9.10
2023-09-29T16:27:25.497Z,11.50
2023-09-29T16:31:19.156Z,7.80
2023-09-29T16:34:44.677Z,7.40
2023-09-29T16:38:41.200Z,9.00
2023-09-29T16:42:06.889Z,9.10
2023-09-29T16:45:44.345Z,10.00
2023-09-29T16:49:22.114Z,15.80
2023-09-29T16:52:59.823Z,18.70
2023-09-29T16:56:56.450Z,20.20
2023-09-29T17:00:22.116Z,16.90
2023-09-29T17:04:18.751Z,22.20
2023-09-29T17:08:04.503Z,17.50
2023-09-29T17:11:32.753Z,17.70
2023-09-29T17:15:08.574Z,17.50
2023-09-29T17:19:04.709Z,21.20
2023-09-29T17:22:30.234Z,16.50
2023-09-29T17:26:08.590Z,15.00
2023-09-29T17:30:05.030Z,16.10
2023-09-29T17:33:49.753Z,13.00
2023-09-29T17:37:35.474Z,17.40
2023-09-29T17:41:22.372Z,16.90
2023-09-29T17:44:48.273Z,18.00
2023-09-29T17:48:40.790Z,25.30
2023-09-29T17:52:28.914Z,14.20
2023-09-29T17:56:14.087Z,12.10
2023-09-29T17:59:42.317Z,13.40
2023-09-29T18:03:18.272Z,17.90
2023-09-29T18:06:57.449Z,15.10
2023-09-29T18:10:33.646Z,17.40
2023-09-29T18:14:10.737Z,17.50
2023-09-29T18:18:07.497Z,15.00
2023-09-29T18:21:53.347Z,19.20
2023-09-29T18:25:19.634Z,17.30
2023-09-29T18:28:57.452Z,15.60
2023-09-29T18:32:34.977Z,20.90
2023-09-29T18:36:31.519Z,17.00
2023-09-29T18:40:16.446Z,34.50
2023-09-29T18:43:42.555Z,19.60
2023-09-29T18:47:39.562Z,21.40
2023-09-29T18:51:26.749Z,23.30
2023-09-29T18:55:13.299Z,14.70
2023-09-29T18:58:42.104Z,23.10
2023-09-29T19:02:19.575Z,16.90
2023-09-29T19:06:16.210Z,19.20
2023-09-29T19:09:42.353Z,18.50
2023-09-29T19:13:21.124Z,11.20
2023-09-29T19:16:59.863Z,21.50
2023-09-29T19:20:37.439Z,15.70
2023-09-29T19:24:34.024Z,28.70
2023-09-29T19:28:01.704Z,30.00
2023-09-29T19:31:56.929Z,23.80
2023-09-29T19:35:26.196Z,22.40
2023-09-29T19:39:04.340Z,17.70
2023-09-29T19:42:41.599Z,15.00
2023-09-29T19:46:39.452Z,17.00
2023-09-29T19:50:07.468Z,17.50
2023-09-29T19:53:45.073Z,17.10
2023-09-29T19:57:22.279Z,20.90
2023-09-29T20:01:20.752Z,16.70
2023-09-29T20:04:46.487Z,18.30
2023-09-29T20:08:28.527Z,17.50
2023-09-29T20:12:02.195Z,17.70
2023-09-29T20:15:58.654Z,20.20
2023-09-29T20:19:24.467Z,21.10
2023-09-29T20:23:03.585Z,25.60
2023-09-29T20:26:40.541Z,27.30
2023-09-29T20:30:17.660Z,27.00
2023-09-29T20:33:57.439Z,23.40
2023-09-29T20:37:51.784Z,28.20
2023-09-29T20:41:17.538Z,27.10
2023-09-29T20:44:55.402Z,29.90
2023-09-29T20:48:51.916Z,24.90
2023-09-29T20:52:38.573Z,32.90
2023-09-29T20:56:22.794Z,26.70
2023-09-29T21:00:09.002Z,23.70
2023-09-29T21:03:35.655Z,33.60
2023-09-29T21:07:12.776Z,27.00
2023-09-29T21:11:09.151Z,31.80
2023-09-29T21:14:35.142Z,25.90
2023-09-29T21:18:12.504Z,20.50
2023-09-29T21:22:10.540Z,25.00
2023-09-29T21:25:37.824Z,44.30
2023-09-29T21:29:15.285Z,32.20
2023-09-29T21:33:11.480Z,27.90
2023-09-29T21:36:40.125Z,32.30
2023-09-29T21:40:15.253Z,30.30
2023-09-29T21:43:52.973Z,23.80
2023-09-29T21:47:30.582Z,27.30
2023-09-29T21:51:32.650Z,32.00
2023-09-29T21:55:20.388Z,24.20
2023-09-29T21:59:05.070Z,23.10
2023-09-29T22:02:52.050Z,25.50
2023-09-29T22:06:19.193Z,21.10
2023-09-29T22:09:57.603Z,23.60
2023-09-29T22:13:52.418Z,27.40
2023-09-29T22:17:19.325Z,23.70
2023-09-29T22:20:59.006Z,29.20
2023-09-29T22:24:52.252Z,23.30
2023-09-29T22:28:36.602Z,22.70
2023-09-29T22:32:04.380Z,20.40
2023-09-29T22:35:41.545Z,24.80
2023-09-29T22:39:46.742Z,23.30
2023-09-29T22:43:15.315Z,28.00
2023-09-29T22:46:55.545Z,34.60
2023-09-29T22:50:30.907Z,28.40
2023-09-29T22:54:08.934Z,24.40
2023-09-29T22:57:45.847Z,24.60
2023-09-29T23:01:23.642Z,24.90
2023-09-29T23:05:20.256Z,18.40
2023-09-29T23:08:49.230Z,24.60
2023-09-29T23:12:46.349Z,29.30
2023-09-29T23:16:31.251Z,27.90
2023-09-29T23:19:56.786Z,31.50
2023-09-29T23:23:54.131Z,32.50
2023-09-29T23:27:19.632Z,38.90
2023-09-29T23:31:16.031Z,34.10
2023-09-29T23:34:41.827Z,24.10
2023-09-29T23:38:20.801Z,26.90
2023-09-29T23:41:57.568Z,21.10
2023-09-29T23:45:53.967Z,22.30
2023-09-29T23:49:19.650Z,26.60
2023-09-29T23:53:15.975Z,27.40
2023-09-29T23:56:41.474Z,27.80
